createdAt,value
2022-09-11T00:10:00.532Z,48.16
2022-09-11T00:10:26.116Z,57.97
2022-09-11T00:13:44.205Z,44.11
2022-09-11T00:14:45.361Z,49.25
2022-09-11T00:15:46.394Z,48.98
2022-09-11T00:16:45.487Z,56.65
2022-09-11T00:20:45.328Z,53.40
2022-09-11T00:21:46.971Z,47.68
2022-09-11T00:22:47.264Z,48.87
2022-09-11T00:23:47.588Z,43.13
2022-09-11T00:24:47.266Z,42.95
2022-09-11T00:25:48.295Z,48.24
2022-09-11T00:26:47.672Z,51.05
2022-09-11T00:27:48.272Z,56.31
2022-09-11T00:28:47.426Z,51.41
2022-09-11T00:29:46.607Z,43.20
2022-09-11T00:30:47.056Z,47.39
2022-09-11T00:31:47.596Z,48.83
2022-09-11T00:32:47.369Z,43.69
2022-09-11T00:33:47.265Z,43.96
2022-09-11T00:34:47.259Z,53.68
2022-09-11T00:35:47.761Z,45.91
2022-09-11T00:36:46.516Z,50.62
2022-09-11T00:37:46.493Z,43.11
2022-09-11T00:38:47.154Z,48.80
2022-09-11T00:39:47.298Z,43.09
2022-09-11T00:40:46.440Z,42.98
2022-09-11T00:41:46.465Z,43.12
2022-09-11T00:42:46.499Z,43.16
2022-09-11T00:43:46.418Z,43.06
2022-09-11T00:44:47.288Z,48.21
2022-09-11T00:45:46.775Z,43.12
2022-09-11T00:46:47.768Z,43.14
2022-09-11T00:47:46.422Z,45.89
2022-09-11T00:48:46.422Z,50.72
2022-09-11T00:49:47.557Z,49.04
2022-09-11T00:50:46.532Z,43.93
2022-09-11T00:51:48.764Z,43.22
2022-09-11T00:52:50.050Z,43.10
2022-09-11T00:53:49.764Z,43.25
2022-09-11T00:54:47.769Z,48.07
2022-09-11T00:55:47.568Z,43.84
2022-09-11T00:56:46.598Z,43.44
2022-09-11T00:57:46.766Z,49.50
2022-09-11T00:58:46.278Z,43.63
2022-09-11T00:59:47.820Z,50.09
2022-09-11T01:00:46.391Z,43.22
2022-09-11T01:01:47.624Z,43.39
2022-09-11T01:02:47.833Z,43.26
2022-09-11T01:03:46.412Z,49.37
2022-09-11T01:04:46.364Z,48.83
2022-09-11T01:05:47.129Z,44.26
2022-09-11T01:06:47.117Z,43.92
2022-09-11T01:07:47.768Z,47.74
2022-09-11T01:08:46.770Z,43.89
2022-09-11T01:09:48.893Z,43.35
2022-09-11T01:10:47.327Z,43.38
2022-09-11T01:11:47.268Z,43.34
2022-09-11T01:12:46.292Z,43.34
2022-09-11T01:13:46.326Z,47.86
2022-09-11T01:14:46.773Z,46.58
2022-09-11T01:15:47.435Z,49.13
2022-09-11T01:16:46.613Z,44.77
2022-09-11T01:17:46.309Z,45.74
2022-09-11T01:18:47.047Z,48.75
2022-09-11T01:19:48.046Z,43.47
2022-09-11T01:20:47.496Z,49.94
2022-09-11T01:21:46.488Z,49.45
2022-09-11T01:22:47.796Z,43.38
2022-09-11T01:23:46.775Z,43.29
2022-09-11T01:24:46.459Z,43.65
2022-09-11T01:25:46.780Z,56.17
2022-09-11T01:26:48.269Z,51.29
2022-09-11T01:27:46.551Z,45.38
2022-09-11T01:28:48.151Z,53.81
2022-09-11T01:29:47.001Z,44.65
2022-09-11T01:30:46.757Z,49.50
2022-09-11T01:31:47.901Z,43.09
2022-09-11T01:32:47.776Z,43.18
2022-09-11T01:33:47.887Z,43.59
2022-09-11T01:34:47.435Z,50.25
2022-09-11T01:35:46.777Z,43.36
2022-09-11T01:36:47.985Z,47.68
2022-09-11T01:37:46.825Z,54.72
2022-09-11T01:38:46.784Z,44.36
2022-09-11T01:39:47.295Z,52.82
2022-09-11T01:40:45.993Z,44.14
2022-09-11T01:41:46.178Z,57.72
2022-09-11T01:42:45.986Z,49.39
2022-09-11T01:43:46.008Z,50.05
2022-09-11T01:44:45.984Z,43.05
2022-09-11T02:03:53.314Z,50.80
2022-09-11T02:04:54.461Z,47.47
2022-09-11T02:05:54.469Z,51.80
2022-09-11T02:06:54.427Z,45.07
2022-09-11T02:07:54.495Z,51.29
2022-09-11T02:08:54.500Z,42.99
2022-09-11T02:09:54.549Z,43.07
2022-09-11T02:10:55.432Z,50.23
2022-09-11T02:11:54.452Z,55.77
2022-09-11T02:12:54.489Z,47.84
2022-09-11T02:13:54.438Z,44.23
2022-09-11T02:14:54.432Z,42.90
2022-09-11T02:15:54.503Z,42.91
2022-09-11T02:16:54.395Z,50.37
2022-09-11T02:17:54.397Z,43.16
2022-09-11T02:18:54.407Z,43.18
2022-09-11T02:19:54.385Z,49.62
2022-09-11T02:20:54.402Z,42.88
2022-09-11T02:21:54.393Z,42.87
2022-09-11T02:22:54.347Z,49.07
2022-09-11T02:23:54.391Z,49.45
2022-09-11T02:24:54.326Z,43.02
2022-09-11T02:25:54.335Z,42.87
2022-09-11T02:26:54.359Z,49.81
2022-09-11T02:27:54.308Z,49.81
2022-09-11T02:28:54.321Z,42.94
2022-09-11T02:29:54.293Z,51.47
2022-09-11T02:30:54.308Z,42.92
2022-09-11T02:31:54.311Z,42.84
2022-09-11T02:32:54.337Z,42.94
2022-09-11T02:33:54.254Z,42.91
2022-09-11T02:34:54.298Z,46.10
2022-09-11T02:35:54.249Z,48.49
2022-09-11T02:36:54.261Z,43.35
2022-09-11T02:37:54.289Z,54.33
2022-09-11T02:38:54.273Z,45.90
2022-09-11T02:39:54.298Z,54.60
2022-09-11T02:40:54.221Z,48.92
2022-09-11T02:41:54.210Z,49.04
2022-09-11T02:42:54.235Z,45.79
2022-09-11T02:43:54.193Z,49.30
2022-09-11T02:44:54.192Z,42.90
2022-09-11T02:45:54.418Z,42.89
2022-09-11T02:46:54.181Z,43.02
2022-09-11T02:47:54.173Z,49.87
2022-09-11T02:48:54.147Z,49.02
2022-09-11T02:49:55.160Z,46.61
2022-09-11T02:50:54.152Z,46.00
2022-09-11T02:51:54.143Z,45.69
2022-09-11T02:52:54.150Z,45.52
2022-09-11T02:53:54.082Z,49.92
2022-09-11T02:54:54.120Z,49.08
2022-09-11T02:55:54.115Z,54.94
2022-09-11T02:56:54.094Z,42.98
2022-09-11T02:57:54.108Z,49.52
2022-09-11T02:58:54.098Z,42.92
2022-09-11T02:59:54.137Z,48.94
2022-09-11T03:00:54.122Z,43.94
2022-09-11T03:01:54.151Z,54.07
2022-09-11T03:02:54.045Z,43.60
2022-09-11T03:03:54.040Z,52.21
2022-09-11T03:04:54.087Z,51.11
2022-09-11T03:05:54.016Z,43.00
2022-09-11T03:06:54.013Z,49.51
2022-09-11T03:07:54.024Z,49.78
2022-09-11T03:08:54.005Z,42.89
2022-09-11T03:09:54.007Z,42.92
2022-09-11T03:10:53.973Z,42.91
2022-09-11T03:11:53.974Z,42.91
2022-09-11T03:12:53.939Z,43.07
2022-09-11T03:13:54.042Z,52.78
2022-09-11T03:14:53.962Z,53.38
2022-09-11T03:15:53.981Z,47.08
2022-09-11T03:16:53.904Z,49.09
2022-09-11T03:17:53.947Z,44.99
2022-09-11T03:18:53.887Z,49.56
2022-09-11T03:19:53.897Z,53.65
2022-09-11T03:20:53.935Z,45.32
2022-09-11T03:21:53.897Z,53.08
2022-09-11T03:22:53.888Z,44.84
2022-09-11T03:23:53.898Z,63.11
2022-09-11T03:24:53.872Z,52.93
2022-09-11T03:25:54.072Z,51.87
2022-09-11T03:26:53.869Z,48.81
2022-09-11T03:27:53.865Z,64.11
2022-09-11T03:28:53.829Z,56.60
2022-09-11T03:29:54.705Z,43.26
2022-09-11T03:30:53.864Z,46.12
2022-09-11T03:31:53.857Z,53.91
2022-09-11T03:32:53.831Z,43.09
2022-09-11T03:33:53.780Z,43.14
2022-09-11T03:34:53.825Z,43.61
2022-09-11T03:35:53.812Z,53.58
2022-09-11T03:36:53.802Z,50.47
2022-09-11T03:37:53.733Z,53.39
2022-09-11T03:38:53.807Z,49.55
2022-09-11T03:39:53.804Z,42.97
2022-09-11T03:40:53.751Z,48.96
2022-09-11T03:41:53.737Z,43.52
2022-09-11T03:42:53.761Z,43.00
2022-09-11T03:43:53.751Z,52.59
2022-09-11T03:44:53.704Z,51.51
2022-09-11T03:45:53.781Z,49.12
2022-09-11T03:46:53.733Z,50.68
2022-09-11T04:03:42.226Z,46.76
2022-09-11T04:04:42.044Z,54.08
2022-09-11T04:05:43.239Z,45.05
2022-09-11T04:06:43.184Z,43.83
2022-09-11T04:07:43.153Z,51.87
2022-09-11T04:08:43.166Z,48.91
2022-09-11T04:09:43.243Z,49.92
2022-09-11T04:10:43.207Z,52.80
2022-09-11T04:11:43.143Z,51.27
2022-09-11T04:12:43.189Z,48.37
2022-09-11T04:13:43.299Z,48.80
2022-09-11T04:14:43.174Z,43.95
2022-09-11T04:15:43.150Z,51.02
2022-09-11T04:16:43.219Z,46.35
2022-09-11T04:17:44.123Z,43.90
2022-09-11T04:18:43.106Z,49.60
2022-09-11T04:19:43.123Z,49.09
2022-09-11T04:20:43.090Z,49.74
2022-09-11T04:21:43.118Z,47.57
2022-09-11T04:22:43.054Z,50.03
2022-09-11T04:23:43.215Z,50.27
2022-09-11T04:24:43.101Z,45.72
2022-09-11T04:25:43.083Z,46.31
2022-09-11T04:26:43.104Z,43.30
2022-09-11T04:27:43.082Z,43.43
2022-09-11T04:28:43.041Z,54.79
2022-09-11T04:29:43.014Z,49.75
2022-09-11T04:30:43.010Z,43.41
2022-09-11T04:31:43.127Z,51.31
2022-09-11T04:32:42.989Z,46.41
2022-09-11T04:33:43.125Z,49.55
2022-09-11T04:34:42.998Z,55.50
2022-09-11T04:35:42.954Z,43.35
2022-09-11T04:36:43.009Z,45.34
2022-09-11T04:37:42.966Z,57.03
2022-09-11T04:38:42.994Z,45.40
2022-09-11T04:39:42.986Z,55.41
2022-09-11T04:40:42.997Z,50.05
2022-09-11T04:41:42.961Z,51.62
2022-09-11T04:42:42.915Z,57.29
2022-09-11T04:43:43.085Z,55.01
2022-09-11T04:44:42.923Z,49.40
2022-09-11T04:45:43.018Z,53.55
2022-09-11T04:46:42.929Z,44.04
2022-09-11T04:47:42.950Z,49.39
2022-09-11T04:48:42.867Z,43.56
2022-09-11T04:49:42.879Z,49.51
2022-09-11T04:50:42.884Z,45.09
2022-09-11T04:51:42.880Z,53.59
2022-09-11T04:52:42.864Z,49.03
2022-09-11T04:53:42.953Z,49.78
2022-09-11T04:54:42.908Z,51.31
2022-09-11T04:55:42.850Z,53.83
2022-09-11T04:56:42.855Z,50.16
2022-09-11T04:57:42.844Z,54.45
2022-09-11T04:58:42.827Z,48.97
2022-09-11T04:59:42.840Z,51.35
2022-09-11T05:00:42.897Z,44.39
2022-09-11T05:01:42.858Z,48.39
2022-09-11T05:02:42.808Z,49.65
2022-09-11T05:03:42.872Z,50.04
2022-09-11T05:04:42.788Z,50.75
2022-09-11T05:05:42.760Z,56.31
2022-09-11T05:06:42.795Z,48.57
2022-09-11T05:07:42.789Z,48.96
2022-09-11T05:08:42.808Z,48.75
2022-09-11T05:09:42.779Z,51.13
2022-09-11T05:10:42.750Z,47.73
2022-09-11T05:11:42.765Z,45.35
2022-09-11T05:12:42.739Z,44.64
2022-09-11T05:13:42.775Z,55.46
2022-09-11T05:14:42.764Z,55.81
2022-09-11T05:15:42.720Z,49.15
2022-09-11T05:16:42.706Z,43.57
2022-09-11T05:17:42.712Z,43.45
2022-09-11T05:18:42.677Z,43.16
2022-09-11T05:19:42.689Z,49.01
2022-09-11T05:20:42.645Z,53.01
2022-09-11T05:21:42.711Z,48.37
2022-09-11T05:22:42.606Z,47.17
2022-09-11T05:23:42.793Z,54.00
2022-09-11T05:24:42.632Z,49.16
2022-09-11T05:25:42.614Z,50.87
2022-09-11T05:26:42.591Z,57.57
2022-09-11T05:27:42.662Z,44.83
2022-09-11T05:28:42.615Z,47.75
2022-09-11T05:29:42.642Z,43.95
2022-09-11T05:30:43.130Z,43.13
2022-09-11T05:31:42.666Z,58.04
2022-09-11T05:32:42.576Z,55.82
2022-09-11T05:33:42.614Z,54.71
2022-09-11T05:34:42.599Z,49.94
2022-09-11T05:35:42.554Z,52.21
2022-09-11T05:36:42.522Z,50.77
2022-09-11T05:37:42.496Z,51.64
2022-09-11T05:38:42.535Z,47.21
2022-09-11T05:39:42.585Z,55.26
2022-09-11T05:40:42.556Z,63.81
2022-09-11T05:41:42.593Z,46.98
2022-09-11T05:42:42.499Z,48.35
2022-09-11T05:43:42.605Z,50.42
2022-09-11T05:44:42.463Z,54.18
2022-09-11T05:45:42.543Z,56.45
2022-09-11T05:46:42.496Z,49.89
2022-09-11T05:47:42.496Z,49.26
2022-09-11T05:48:42.463Z,54.14
2022-09-11T05:49:43.147Z,60.82
2022-09-11T05:50:42.498Z,54.25
2022-09-11T05:51:42.485Z,51.11
2022-09-11T05:52:42.481Z,54.88
2022-09-11T05:53:42.494Z,48.77
2022-09-11T05:54:42.405Z,53.70
2022-09-11T05:55:42.418Z,59.31
2022-09-11T05:56:42.383Z,50.15
2022-09-11T05:57:42.414Z,50.10
2022-09-11T05:58:42.335Z,49.04
2022-09-11T05:59:42.393Z,53.80
2022-09-11T06:00:42.432Z,53.86
2022-09-11T06:01:42.355Z,45.35
2022-09-11T06:02:42.352Z,56.46
2022-09-11T06:03:42.441Z,54.42
2022-09-11T06:04:42.316Z,51.09
2022-09-11T06:05:42.839Z,50.14
2022-09-11T06:06:42.330Z,56.67
2022-09-11T06:07:42.356Z,52.16
2022-09-11T06:08:42.305Z,49.27
2022-09-11T06:09:42.317Z,56.92
2022-09-11T06:10:42.317Z,43.25
2022-09-11T06:11:42.317Z,46.04
2022-09-11T06:12:42.267Z,65.46
2022-09-11T06:13:42.436Z,52.39
2022-09-11T06:14:42.251Z,49.42
2022-09-11T06:15:46.658Z,57.70
2022-09-11T06:16:43.442Z,48.45
2022-09-11T06:17:42.300Z,49.58
2022-09-11T06:18:42.254Z,55.58
2022-09-11T06:19:42.238Z,55.03
2022-09-11T06:20:42.259Z,58.21
2022-09-11T06:21:42.192Z,57.04
2022-09-11T06:22:42.445Z,51.63
2022-09-11T06:23:42.230Z,52.05
2022-09-11T06:24:42.165Z,63.71
2022-09-11T06:25:42.196Z,61.13
2022-09-11T06:26:42.248Z,54.38
2022-09-11T06:27:42.175Z,58.79
2022-09-11T06:28:42.645Z,59.77
2022-09-11T06:29:42.123Z,56.67
2022-09-11T06:30:42.175Z,47.09
2022-09-11T06:31:42.098Z,57.04
2022-09-11T06:32:42.175Z,59.74
2022-09-11T06:33:42.156Z,46.57
2022-09-11T06:34:42.139Z,55.33
2022-09-11T06:35:42.336Z,59.85
2022-09-11T06:36:42.095Z,52.22
2022-09-11T06:37:42.147Z,51.15
2022-09-11T06:38:42.029Z,57.73
2022-09-11T06:39:42.144Z,61.81
2022-09-11T06:40:42.047Z,57.09
2022-09-11T06:41:42.017Z,56.43
2022-09-11T06:42:42.064Z,56.86
2022-09-11T06:43:42.126Z,58.50
2022-09-11T06:44:42.135Z,62.56
2022-09-11T06:45:42.056Z,62.85
2022-09-11T06:46:41.971Z,58.38
2022-09-11T06:47:42.005Z,62.22
2022-09-11T06:48:41.977Z,55.33
2022-09-11T06:49:42.012Z,48.38
2022-09-11T06:50:41.970Z,51.73
2022-09-11T06:51:42.003Z,51.46
2022-09-11T06:52:41.922Z,55.04
2022-09-11T06:53:42.058Z,58.92
2022-09-11T06:54:41.961Z,57.97
2022-09-11T06:55:41.940Z,62.10
2022-09-11T06:56:41.925Z,44.72
2022-09-11T06:57:42.205Z,52.87
2022-09-11T06:58:42.924Z,53.86
2022-09-11T06:59:41.913Z,56.00
2022-09-11T07:00:41.941Z,57.84
2022-09-11T07:01:41.961Z,52.40
2022-09-11T07:02:41.890Z,50.64
2022-09-11T07:03:41.935Z,53.50
2022-09-11T07:04:41.913Z,61.18
2022-09-11T07:05:41.869Z,59.72
2022-09-11T07:06:41.829Z,56.01
2022-09-11T07:07:41.901Z,53.61
2022-09-11T07:08:41.813Z,62.27
2022-09-11T07:09:41.809Z,55.42
2022-09-11T07:10:41.807Z,57.53
2022-09-11T07:11:41.863Z,65.15
2022-09-11T07:12:41.837Z,59.08
2022-09-11T07:13:41.927Z,66.40
2022-09-11T07:14:41.817Z,59.53
2022-09-11T07:15:41.795Z,56.59
2022-09-11T07:16:41.827Z,54.16
2022-09-11T07:17:41.839Z,47.38
2022-09-11T07:18:42.738Z,55.91
2022-09-11T07:19:41.746Z,56.53
2022-09-11T07:20:41.821Z,59.02
2022-09-11T07:21:41.737Z,61.46
2022-09-11T07:22:41.738Z,63.13
2022-09-11T07:23:41.863Z,55.70
2022-09-11T07:24:41.682Z,54.53
2022-09-11T07:25:41.702Z,48.08
2022-09-11T07:26:41.677Z,57.77
2022-09-11T07:27:41.667Z,61.31
2022-09-11T07:28:41.745Z,54.87
2022-09-11T07:29:41.691Z,60.84
2022-09-11T07:30:41.764Z,54.40
2022-09-11T07:31:41.674Z,58.82
2022-09-11T07:32:41.670Z,62.71
2022-09-11T07:33:41.777Z,62.66
2022-09-11T07:34:41.608Z,57.01
2022-09-11T07:35:41.671Z,65.10
2022-09-11T07:36:41.683Z,57.58
2022-09-11T07:37:41.664Z,65.12
2022-09-11T07:38:41.610Z,60.08
2022-09-11T07:39:41.887Z,57.65
2022-09-11T07:40:41.609Z,54.02
2022-09-11T07:41:41.606Z,63.10
2022-09-11T07:42:41.608Z,58.24
2022-09-11T07:43:41.690Z,61.42
2022-09-11T07:44:41.589Z,62.44
2022-09-11T07:45:41.603Z,58.65
2022-09-11T07:46:41.588Z,62.85
2022-09-11T07:47:41.562Z,53.57
2022-09-11T07:48:41.562Z,53.11
2022-09-11T07:49:41.521Z,64.37
2022-09-11T07:50:41.482Z,59.02
2022-09-11T07:51:41.531Z,61.69
2022-09-11T07:52:41.516Z,61.68
2022-09-11T07:53:41.490Z,58.93
2022-09-11T07:54:41.497Z,55.77
2022-09-11T07:55:41.491Z,58.59
2022-09-11T07:56:41.571Z,63.36
2022-09-11T07:57:42.383Z,58.61
2022-09-11T07:58:41.490Z,64.98
2022-09-11T07:59:41.484Z,61.73
2022-09-11T08:00:41.441Z,61.60
2022-09-11T08:01:41.444Z,67.13
2022-09-11T08:02:41.479Z,61.53
2022-09-11T08:03:41.542Z,64.45
2022-09-11T08:04:41.445Z,63.00
2022-09-11T08:05:41.408Z,59.36
2022-09-11T08:06:41.427Z,57.88
2022-09-11T08:07:41.487Z,63.21
2022-09-11T08:08:41.398Z,66.21
2022-09-11T08:09:41.403Z,64.19
2022-09-11T08:10:41.368Z,64.99
2022-09-11T08:11:41.394Z,60.25
2022-09-11T08:12:41.416Z,57.64
2022-09-11T08:13:41.393Z,59.22
2022-09-11T08:14:41.985Z,61.42
2022-09-11T08:16:15.634Z,59.42
2022-09-11T08:16:42.253Z,52.26
2022-09-11T08:18:14.552Z,66.00
2022-09-11T08:19:14.875Z,62.33
2022-09-11T08:19:41.443Z,67.11
2022-09-11T08:20:41.352Z,59.91
2022-09-11T08:21:41.407Z,53.33
2022-09-11T08:22:42.143Z,61.96
2022-09-11T08:23:42.273Z,64.06
2022-09-11T08:24:41.377Z,63.64
2022-09-11T08:25:42.019Z,62.32
2022-09-11T08:26:43.710Z,62.43
2022-09-11T08:27:41.792Z,53.04
2022-09-11T08:28:41.296Z,51.03
2022-09-11T08:29:41.784Z,52.56
2022-09-11T08:30:41.239Z,50.50
2022-09-11T08:31:41.362Z,63.04
2022-09-11T08:32:42.282Z,63.78
2022-09-11T08:33:41.345Z,61.63
2022-09-11T08:34:41.791Z,58.92
2022-09-11T08:35:41.337Z,54.32
2022-09-11T08:36:42.380Z,58.56
2022-09-11T08:37:41.812Z,59.10
2022-09-11T08:38:42.331Z,59.76
2022-09-11T08:39:42.380Z,63.01
2022-09-11T08:40:44.287Z,62.88
2022-09-11T08:41:41.789Z,59.61
2022-09-11T08:42:42.621Z,60.65
2022-09-11T08:43:41.947Z,55.49
2022-09-11T08:44:41.899Z,67.57
2022-09-11T08:45:42.907Z,57.15
2022-09-11T08:46:41.364Z,60.14
2022-09-11T08:47:42.242Z,63.40
2022-09-11T08:48:42.812Z,60.89
2022-09-11T08:49:41.802Z,61.43
2022-09-11T08:50:43.215Z,66.45
2022-09-11T08:51:42.096Z,60.60
2022-09-11T08:52:42.789Z,62.68
2022-09-11T08:53:41.206Z,65.25
2022-09-11T08:54:41.791Z,59.87
2022-09-11T08:55:41.109Z,60.80
2022-09-11T08:56:41.166Z,56.46
2022-09-11T08:57:41.159Z,63.85
2022-09-11T08:58:41.213Z,66.82
2022-09-11T08:59:41.216Z,66.22
2022-09-11T09:00:41.131Z,64.69
2022-09-11T09:01:41.826Z,65.20
2022-09-11T09:02:42.149Z,63.67
2022-09-11T09:03:42.015Z,62.47
2022-09-11T09:04:41.630Z,67.85
2022-09-11T09:05:41.547Z,54.87
2022-09-11T09:06:41.809Z,65.62
2022-09-11T09:07:40.987Z,65.07
2022-09-11T09:08:41.040Z,66.86
2022-09-11T09:09:41.057Z,66.46
2022-09-11T09:10:41.049Z,53.59
2022-09-11T09:11:41.102Z,69.08
2022-09-11T09:12:42.296Z,63.38
2022-09-11T09:13:41.115Z,63.50
2022-09-11T09:14:41.118Z,61.76
2022-09-11T09:15:43.401Z,55.76
2022-09-11T09:16:41.163Z,56.25
2022-09-11T09:17:41.195Z,64.59
2022-09-11T09:18:42.310Z,63.19
2022-09-11T09:19:41.992Z,60.49
2022-09-11T09:20:41.057Z,62.87
2022-09-11T09:21:41.118Z,64.48
2022-09-11T09:22:40.937Z,60.58
2022-09-11T09:23:41.001Z,67.15
2022-09-11T09:24:42.114Z,59.23
2022-09-11T09:25:41.601Z,61.94
2022-09-11T09:26:41.627Z,60.06
2022-09-11T09:27:40.925Z,63.22
2022-09-11T09:28:41.875Z,63.10
2022-09-11T09:29:42.438Z,64.93
2022-09-11T09:30:42.353Z,65.01
2022-09-11T09:31:42.650Z,56.54
2022-09-11T09:32:42.321Z,57.29
2022-09-11T09:33:41.876Z,63.11
2022-09-11T09:34:40.965Z,64.57
2022-09-11T09:35:41.317Z,65.12
2022-09-11T09:36:40.804Z,66.27
2022-09-11T09:37:40.854Z,57.89
2022-09-11T09:38:40.783Z,65.59
2022-09-11T09:39:40.860Z,64.79
2022-09-11T09:40:42.441Z,61.07
2022-09-11T09:41:42.094Z,62.13
2022-09-11T09:42:41.574Z,63.01
2022-09-11T09:43:40.875Z,64.99
2022-09-11T09:44:42.418Z,63.69
2022-09-11T09:45:41.378Z,63.28
2022-09-11T09:46:41.675Z,65.03
2022-09-11T09:47:41.314Z,61.79
2022-09-11T09:48:40.731Z,64.36
2022-09-11T09:50:01.313Z,63.31
2022-09-11T09:50:45.149Z,53.74
2022-09-11T09:52:04.495Z,64.28
2022-09-11T09:53:06.884Z,61.80
2022-09-11T09:53:48.300Z,65.24
2022-09-11T09:54:42.592Z,57.44
2022-09-11T09:55:41.518Z,68.36
2022-09-11T09:56:41.566Z,65.44
2022-09-11T09:57:41.534Z,64.33
2022-09-11T09:58:41.576Z,60.20
2022-09-11T09:59:40.711Z,65.03
2022-09-11T10:00:40.787Z,65.29
2022-09-11T10:01:40.692Z,57.32
2022-09-11T10:02:40.703Z,60.18
2022-09-11T10:03:40.534Z,69.85
2022-09-11T10:04:40.556Z,58.84
2022-09-11T10:05:40.545Z,64.65
2022-09-11T10:06:40.546Z,64.17
2022-09-11T10:07:41.316Z,59.75
2022-09-11T10:08:41.126Z,62.69
2022-09-11T10:09:41.891Z,61.58
2022-09-11T10:10:40.651Z,65.23
2022-09-11T10:11:41.830Z,65.64
2022-09-11T10:12:40.513Z,63.78
2022-09-11T10:13:40.628Z,65.31
2022-09-11T10:14:51.385Z,62.49
2022-09-11T10:15:42.524Z,67.92
2022-09-11T10:16:40.504Z,62.33
2022-09-11T10:17:41.393Z,66.48
2022-09-11T10:18:41.359Z,64.26
2022-09-11T10:22:51.800Z,67.84
2022-09-11T10:23:51.290Z,68.68
2022-09-11T10:24:51.575Z,66.61
2022-09-11T10:25:51.097Z,65.62
2022-09-11T10:26:51.035Z,67.35
2022-09-11T10:27:51.029Z,63.89
2022-09-11T10:28:53.576Z,67.96
2022-09-11T10:29:51.073Z,58.44
2022-09-11T10:30:51.898Z,67.62
2022-09-11T10:31:51.137Z,65.92
2022-09-11T10:32:51.585Z,65.22
2022-09-11T10:33:52.105Z,66.31
2022-09-11T10:34:51.062Z,67.59
2022-09-11T10:35:51.065Z,63.17
2022-09-11T10:36:51.912Z,66.74
2022-09-11T10:37:52.610Z,66.25
2022-09-11T10:38:51.630Z,64.70
2022-09-11T10:39:52.076Z,67.68
2022-09-11T10:40:51.122Z,66.18
2022-09-11T10:41:51.730Z,61.65
2022-09-11T10:42:52.623Z,65.73
2022-09-11T10:43:51.040Z,67.19
2022-09-11T10:44:51.909Z,67.51
2022-09-11T10:45:53.212Z,69.68
2022-09-11T10:46:52.370Z,68.39
2022-09-11T10:47:51.973Z,62.49
2022-09-11T10:48:51.939Z,69.99
2022-09-11T10:49:50.983Z,65.86
2022-09-11T10:50:50.991Z,63.93
2022-09-11T10:51:50.898Z,57.91
2022-09-11T10:52:52.613Z,67.61
2022-09-11T10:53:51.944Z,65.06
2022-09-11T10:54:50.906Z,69.41
2022-09-11T10:55:50.822Z,66.68
2022-09-11T10:56:51.817Z,68.97
2022-09-11T10:57:51.454Z,63.59
2022-09-11T10:58:54.772Z,67.41
2022-09-11T10:59:52.611Z,66.02
2022-09-11T11:00:51.037Z,68.30
2022-09-11T11:01:51.619Z,65.88
2022-09-11T11:02:51.608Z,66.62
2022-09-11T11:03:50.744Z,64.69
2022-09-11T11:04:50.757Z,58.24
2022-09-11T11:05:50.856Z,67.17
2022-09-11T11:06:51.389Z,63.51
2022-09-11T11:07:50.851Z,67.59
2022-09-11T11:08:51.920Z,66.99
2022-09-11T11:09:50.791Z,64.75
2022-09-11T11:10:50.998Z,63.77
2022-09-11T11:11:50.759Z,67.33
2022-09-11T11:12:50.754Z,65.88
2022-09-11T11:13:51.618Z,64.84
2022-09-11T11:14:51.536Z,68.00
2022-09-11T11:15:51.717Z,67.80
2022-09-11T11:16:50.751Z,65.50
2022-09-11T11:17:50.682Z,68.69
2022-09-11T11:18:51.125Z,65.91
2022-09-11T11:19:50.742Z,66.32
2022-09-11T11:20:53.125Z,68.06
2022-09-11T11:21:50.720Z,67.16
2022-09-11T11:22:50.636Z,63.64
2022-09-11T11:23:51.619Z,66.21
2022-09-11T11:24:51.388Z,68.32
2022-09-11T11:25:50.658Z,68.30
2022-09-11T11:26:51.120Z,66.49
2022-09-11T11:27:50.603Z,64.01
2022-09-11T11:28:50.652Z,67.92
2022-09-11T11:29:50.698Z,58.61
2022-09-11T11:30:51.364Z,69.03
2022-09-11T11:31:50.710Z,68.43
2022-09-11T11:32:50.533Z,68.38
2022-09-11T11:33:51.377Z,66.43
2022-09-11T11:34:50.497Z,66.16
2022-09-11T11:35:50.570Z,61.85
2022-09-11T11:36:50.537Z,67.41
2022-09-11T11:37:50.595Z,67.69
2022-09-11T11:38:50.586Z,67.41
2022-09-11T11:39:50.703Z,64.86
2022-09-11T11:40:50.635Z,64.60
2022-09-11T11:41:50.505Z,61.94
2022-09-11T11:42:54.073Z,65.20
2022-09-11T11:43:52.469Z,69.55
2022-09-11T11:44:50.526Z,64.86
2022-09-11T11:45:50.463Z,63.44
2022-09-11T11:46:50.426Z,70.26
2022-09-11T11:47:50.538Z,63.76
2022-09-11T11:48:50.431Z,65.55
2022-09-11T11:49:51.151Z,66.99
2022-09-11T11:50:51.488Z,66.59
2022-09-11T11:51:50.441Z,66.51
2022-09-11T11:52:51.124Z,67.60
2022-09-11T11:53:50.516Z,65.01
2022-09-11T11:54:50.432Z,67.14
2022-09-11T11:55:50.488Z,64.03
2022-09-11T11:56:50.952Z,67.69
2022-09-11T11:57:50.418Z,67.17
2022-09-11T11:58:50.502Z,66.81
2022-09-11T11:59:51.427Z,65.79
2022-09-11T12:00:54.692Z,65.82
2022-09-11T12:01:52.890Z,67.17
2022-09-11T12:02:51.868Z,64.77
2022-09-11T12:03:51.292Z,61.78
2022-09-11T12:04:50.352Z,66.05
2022-09-11T12:05:50.363Z,64.01
2022-09-11T12:06:50.350Z,61.36
2022-09-11T12:07:50.336Z,68.05
2022-09-11T12:08:51.207Z,66.96
2022-09-11T12:09:51.162Z,59.36
2022-09-11T12:10:51.326Z,67.44
2022-09-11T12:11:51.755Z,65.42
2022-09-11T12:12:50.632Z,66.26
2022-09-11T12:13:50.300Z,62.75
2022-09-11T12:14:51.130Z,65.14
2022-09-11T12:15:50.433Z,62.57
2022-09-11T12:16:50.909Z,66.86
2022-09-11T12:17:50.235Z,62.74
2022-09-11T12:18:51.642Z,65.37
2022-09-11T12:19:50.205Z,64.07
2022-09-11T12:20:50.993Z,65.70
2022-09-11T12:21:50.229Z,67.31
2022-09-11T12:22:51.049Z,65.80
2022-09-11T12:23:50.082Z,62.56
2022-09-11T12:24:50.116Z,68.93
2022-09-11T12:25:50.711Z,64.92
2022-09-11T12:26:50.988Z,62.43
2022-09-11T12:27:50.118Z,67.28
2022-09-11T12:28:50.126Z,63.35
2022-09-11T12:29:50.101Z,64.55
2022-09-11T12:30:50.126Z,67.76
2022-09-11T12:31:50.137Z,68.32
2022-09-11T12:32:50.114Z,66.09
2022-09-11T12:33:50.442Z,68.31
2022-09-11T12:34:50.244Z,66.47
2022-09-11T12:35:50.236Z,62.92
2022-09-11T12:36:50.031Z,60.69
2022-09-11T12:37:53.592Z,67.12
2022-09-11T12:38:51.027Z,65.01
2022-09-11T12:39:50.125Z,65.05
2022-09-11T12:40:49.982Z,63.51
2022-09-11T12:41:50.026Z,66.37
2022-09-11T12:42:49.995Z,65.95
2022-09-11T12:43:50.034Z,67.04
2022-09-11T12:44:50.025Z,65.39
2022-09-11T12:45:50.038Z,63.14
2022-09-11T12:46:50.142Z,67.33
2022-09-11T12:47:49.994Z,66.33
2022-09-11T12:49:05.633Z,67.24
2022-09-11T12:49:51.986Z,60.95
2022-09-11T12:50:49.980Z,59.35
2022-09-11T12:51:49.883Z,66.01
2022-09-11T12:52:49.850Z,64.99
2022-09-11T12:53:49.841Z,66.49
2022-09-11T12:54:49.891Z,66.24
2022-09-11T12:55:49.881Z,65.86
2022-09-11T12:56:49.889Z,66.21
2022-09-11T12:57:49.854Z,69.47
2022-09-11T12:58:50.578Z,66.46
2022-09-11T12:59:49.952Z,62.52
2022-09-11T13:00:49.974Z,67.92
2022-09-11T13:01:49.938Z,66.61
2022-09-11T13:02:49.994Z,67.93
2022-09-11T13:03:49.848Z,66.06
2022-09-11T13:04:49.797Z,61.64
2022-09-11T13:05:50.056Z,65.09
2022-09-11T13:06:49.767Z,63.64
2022-09-11T13:07:49.800Z,65.32
2022-09-11T13:08:49.733Z,63.80
2022-09-11T13:09:49.788Z,66.44
2022-09-11T13:10:49.753Z,65.27
2022-09-11T13:11:49.973Z,67.05
2022-09-11T13:12:49.721Z,63.62
2022-09-11T13:13:49.759Z,62.85
2022-09-11T13:14:50.382Z,62.44
2022-09-11T13:15:50.425Z,61.29
2022-09-11T13:16:49.863Z,67.09
2022-09-11T13:17:49.699Z,61.89
2022-09-11T13:18:49.765Z,63.80
2022-09-11T13:19:49.757Z,63.49
2022-09-11T13:20:49.682Z,64.19
2022-09-11T13:22:00.334Z,66.10
2022-09-11T13:23:08.524Z,70.25
2022-09-11T13:23:50.703Z,64.16
2022-09-11T13:24:49.665Z,65.99
2022-09-11T13:25:49.681Z,64.82
2022-09-11T13:26:50.391Z,66.52
2022-09-11T13:27:50.577Z,65.47
2022-09-11T13:28:50.447Z,67.82
2022-09-11T13:29:49.732Z,57.55
2022-09-11T13:30:49.701Z,63.30
2022-09-11T13:31:49.534Z,64.78
2022-09-11T13:32:49.658Z,69.59
2022-09-11T13:33:49.616Z,64.34
2022-09-11T13:34:49.743Z,67.36
2022-09-11T13:35:49.589Z,63.11
2022-09-11T13:36:52.363Z,67.72
2022-09-11T13:37:51.429Z,68.11
2022-09-11T13:38:49.702Z,61.89
2022-09-11T13:39:49.698Z,63.35
2022-09-11T13:40:49.617Z,67.12
2022-09-11T13:41:49.610Z,67.77
2022-09-11T13:42:51.161Z,61.68
2022-09-11T13:43:50.595Z,66.00